Time;durP1;ratioP1;P1;durP2;ratioP2;P2;SDS_P1;SDS_P2;PMS_P1;PMS_P2;Temp;Humidity;BMP_temperature;BMP_pressure;BME280_temperature;BME280_humidity;BME280_pressure;Samples;Min_cycle;Max_cycle;Signal;HPM_P1;HPM_P2
2022/09/27 00:00:57;;;;;;;3.47;2.90;;;;;;;;;;5053626;28;20037;-70
2022/09/27 00:03:23;;;;;;;3.70;2.30;;;;;;;;;;5054121;28;20029;-69
2022/09/27 00:05:49;;;;;;;5.80;2.58;;;;;;;;;;5053991;28;20032;-69
2022/09/27 00:08:15;;;;;;;4.68;2.88;;;;;;;;;;5053520;28;20064;-70
2022/09/27 00:13:18;;;;;;;4.28;2.20;;;;;;;;;;5031811;28;20049;-75
2022/09/27 00:15:44;;;;;;;3.70;2.50;;;;;;;;;;5033019;28;20052;-75
2022/09/27 00:18:10;;;;;;;4.80;2.63;;;;;;;;;;5031974;28;20021;-75
2022/09/27 00:20:36;;;;;;;4.88;2.90;;;;;;;;;;5032977;28;20026;-75
2022/09/27 00:23:02;;;;;;;4.00;2.50;;;;;;;;;;5033327;28;20031;-75
2022/09/27 00:25:28;;;;;;;5.97;2.63;;;;;;;;;;5033536;28;20029;-75
2022/09/27 00:27:53;;;;;;;3.90;2.50;;;;;;;;;;5033104;28;20034;-75
2022/09/27 00:30:19;;;;;;;5.50;2.75;;;;;;;;;;5036120;28;20044;-74
2022/09/27 00:32:45;;;;;;;2.88;2.15;;;;;;;;;;5037109;28;20049;-75
2022/09/27 00:35:11;;;;;;;2.45;2.08;;;;;;;;;;5036980;28;20026;-76
2022/09/27 00:37:37;;;;;;;2.72;2.30;;;;;;;;;;5037057;28;20447;-75
2022/09/27 00:40:03;;;;;;;9.60;2.42;;;;;;;;;;5037145;28;20040;-75
2022/09/27 00:42:29;;;;;;;2.65;2.10;;;;;;;;;;5036696;28;20060;-75
2022/09/27 00:45:00;;;;;;;3.33;2.35;;;;;;;;;;5036945;28;20029;-75
2022/09/27 00:47:32;;;;;;;4.53;2.60;;;;;;;;;;5036648;28;20029;-74
2022/09/27 00:49:58;;;;;;;3.28;2.63;;;;;;;;;;5036890;28;20029;-75
2022/09/27 00:52:31;;;;;;;3.97;2.40;;;;;;;;;;5036543;28;20022;-75
2022/09/27 00:55:02;;;;;;;4.43;2.05;;;;;;;;;;5043608;28;20021;-74
2022/09/27 00:57:28;;;;;;;5.20;2.30;;;;;;;;;;5041611;28;20021;-73
2022/09/27 00:59:59;;;;;;;2.55;2.03;;;;;;;;;;5039997;28;20085;-75
2022/09/27 01:02:26;;;;;;;3.88;2.22;;;;;;;;;;5037072;28;20367;-74
2022/09/27 01:04:52;;;;;;;4.20;2.40;;;;;;;;;;5037763;28;20026;-77
2022/09/27 01:07:18;;;;;;;5.45;2.55;;;;;;;;;;5037469;28;20052;-75
2022/09/27 01:09:44;;;;;;;4.45;2.50;;;;;;;;;;5038268;28;20029;-74
2022/09/27 01:12:10;;;;;;;5.97;2.55;;;;;;;;;;5042141;28;20025;-76
2022/09/27 01:14:51;;;;;;;4.28;2.15;;;;;;;;;;5043059;28;20057;-74
2022/09/27 01:17:26;;;;;;;4.22;2.10;;;;;;;;;;5039864;28;20028;-76
2022/09/27 01:20:07;;;;;;;3.83;1.83;;;;;;;;;;5019922;28;20029;-75
2022/09/27 01:22:42;;;;;;;2.97;1.90;;;;;;;;;;5037091;28;20120;-75
2022/09/27 01:25:15;;;;;;;2.47;1.75;;;;;;;;;;5035944;28;20034;-74
2022/09/27 01:27:54;;;;;;;2.33;1.80;;;;;;;;;;5018970;28;20479;-75
2022/09/27 01:30:41;;;;;;;2.25;1.65;;;;;;;;;;5036374;28;20364;-74
2022/09/27 01:33:18;;;;;;;2.75;1.80;;;;;;;;;;5019654;28;20444;-75
2022/09/27 01:35:51;;;;;;;4.65;1.67;;;;;;;;;;5035730;28;20017;-74
2022/09/27 01:38:16;;;;;;;6.10;1.88;;;;;;;;;;5035563;28;20383;-74
2022/09/27 01:40:49;;;;;;;5.32;2.03;;;;;;;;;;5035843;28;20029;-75
2022/09/27 01:43:22;;;;;;;2.97;1.48;;;;;;;;;;5019245;28;20025;-74
2022/09/27 01:45:53;;;;;;;2.55;1.40;;;;;;;;;;5036118;28;20478;-75
2022/09/27 01:48:22;;;;;;;1.95;1.50;;;;;;;;;;5036332;28;20104;-74
2022/09/27 01:50:50;;;;;;;2.90;1.70;;;;;;;;;;5036738;28;20168;-75
2022/09/27 01:53:19;;;;;;;7.25;1.80;;;;;;;;;;5034855;28;20025;-75
2022/09/27 01:55:46;;;;;;;2.95;1.65;;;;;;;;;;5037969;28;20029;-74
2022/09/27 01:58:14;;;;;;;2.60;1.80;;;;;;;;;;5023437;28;20048;-74
2022/09/27 02:00:42;;;;;;;2.40;1.60;;;;;;;;;;5041397;28;20110;-74
2022/09/27 02:03:19;;;;;;;3.20;1.58;;;;;;;;;;5041402;28;20025;-74
2022/09/27 02:05:49;;;;;;;3.83;1.95;;;;;;;;;;5045065;28;20033;-74
2022/09/27 02:08:20;;;;;;;3.60;1.67;;;;;;;;;;5026193;28;20036;-74
2022/09/27 02:10:48;;;;;;;3.38;1.90;;;;;;;;;;5025777;28;20030;-74
2022/09/27 02:13:21;;;;;;;3.03;1.70;;;;;;;;;;5045324;28;20029;-75
2022/09/27 02:15:59;;;;;;;5.85;2.17;;;;;;;;;;5024762;28;20021;-73
2022/09/27 02:18:29;;;;;;;2.47;1.70;;;;;;;;;;5041896;28;20036;-74
2022/09/27 02:20:58;;;;;;;2.72;1.83;;;;;;;;;;5042747;28;20021;-73
2022/09/27 02:23:38;;;;;;;1.73;1.33;;;;;;;;;;5039363;28;20026;-74
2022/09/27 02:26:04;;;;;;;7.25;2.03;;;;;;;;;;5035881;28;20108;-75
2022/09/27 02:28:35;;;;;;;2.97;1.67;;;;;;;;;;5036051;28;20053;-74
2022/09/27 02:31:01;;;;;;;2.05;1.45;;;;;;;;;;5034761;28;20029;-74
2022/09/27 02:33:40;;;;;;;1.90;1.60;;;;;;;;;;5018847;28;20026;-73
2022/09/27 02:36:07;;;;;;;3.00;1.73;;;;;;;;;;5035123;28;20053;-74
2022/09/27 02:38:33;;;;;;;3.83;2.40;;;;;;;;;;5035535;28;20071;-74
2022/09/27 02:41:00;;;;;;;2.72;2.00;;;;;;;;;;5018089;28;20079;-75
2022/09/27 02:43:28;;;;;;;3.08;1.80;;;;;;;;;;5034825;28;20032;-74
2022/09/27 02:46:13;;;;;;;3.42;2.00;;;;;;;;;;5034271;28;20029;-73
2022/09/27 02:48:42;;;;;;;2.72;1.83;;;;;;;;;;5036964;28;20370;-74
2022/09/27 02:51:28;;;;;;;5.15;1.88;;;;;;;;;;5037145;28;20033;-73
2022/09/27 02:54:15;;;;;;;3.78;1.90;;;;;;;;;;5033912;28;20037;-74
2022/09/27 02:56:41;;;;;;;5.22;2.00;;;;;;;;;;5033772;28;20093;-73
2022/09/27 02:59:13;;;;;;;4.57;1.73;;;;;;;;;;5034390;28;20036;-74
2022/09/27 03:01:51;;;;;;;3.80;1.92;;;;;;;;;;5034074;28;20032;-74
2022/09/27 03:04:22;;;;;;;4.25;2.22;;;;;;;;;;5034584;28;20569;-74
2022/09/27 03:06:48;;;;;;;3.47;1.98;;;;;;;;;;5033933;28;20380;-74
2022/09/27 03:09:22;;;;;;;3.28;2.08;;;;;;;;;;5033983;28;20119;-75
2022/09/27 03:11:48;;;;;;;3.17;1.97;;;;;;;;;;5015889;28;20036;-74
2022/09/27 03:14:14;;;;;;;2.63;1.75;;;;;;;;;;5016176;28;20394;-73
2022/09/27 03:16:40;;;;;;;3.05;1.95;;;;;;;;;;5033690;28;20021;-73
2022/09/27 03:19:06;;;;;;;2.20;1.85;;;;;;;;;;5033560;28;20104;-73
2022/09/27 03:21:32;;;;;;;4.22;2.60;;;;;;;;;;5033815;28;20026;-74
2022/09/27 03:23:58;;;;;;;2.78;1.83;;;;;;;;;;5033870;28;20025;-75
2022/09/27 03:26:24;;;;;;;3.25;2.05;;;;;;;;;;5033483;28;20033;-74
2022/09/27 03:28:50;;;;;;;2.00;1.60;;;;;;;;;;5033930;28;20105;-74
2022/09/27 03:31:16;;;;;;;4.28;3.10;;;;;;;;;;5033201;28;20025;-74
2022/09/27 03:33:42;;;;;;;2.00;1.70;;;;;;;;;;5033802;28;20029;-74
2022/09/27 03:36:08;;;;;;;2.47;1.67;;;;;;;;;;5033698;28;20105;-75
2022/09/27 03:38:33;;;;;;;3.72;1.70;;;;;;;;;;5034007;28;20026;-75
2022/09/27 03:40:59;;;;;;;2.30;1.67;;;;;;;;;;5016243;28;20104;-75
2022/09/27 03:43:25;;;;;;;2.72;1.80;;;;;;;;;;5035989;28;20021;-75
2022/09/27 03:45:51;;;;;;;4.53;1.80;;;;;;;;;;5034726;28;20425;-74
2022/09/27 03:48:17;;;;;;;3.17;2.05;;;;;;;;;;5034710;28;20385;-75
2022/09/27 03:50:43;;;;;;;1.85;1.75;;;;;;;;;;5035367;28;20112;-75
2022/09/27 03:53:09;;;;;;;2.30;1.83;;;;;;;;;;5037783;28;20022;-76
2022/09/27 03:55:35;;;;;;;5.32;2.28;;;;;;;;;;5037857;28;20021;-74
2022/09/27 03:58:01;;;;;;;3.17;2.10;;;;;;;;;;5033897;28;20029;-75
2022/09/27 04:00:27;;;;;;;2.60;2.10;;;;;;;;;;5037723;28;20037;-75
2022/09/27 04:02:53;;;;;;;3.17;2.10;;;;;;;;;;5037945;28;20026;-76
2022/09/27 04:05:19;;;;;;;2.92;2.25;;;;;;;;;;5034081;28;20123;-75
2022/09/27 04:07:47;;;;;;;3.17;2.65;;;;;;;;;;5033020;28;20513;-75
2022/09/27 04:10:13;;;;;;;3.38;2.45;;;;;;;;;;5033187;28;20022;-75
2022/09/27 04:12:41;;;;;;;4.35;2.45;;;;;;;;;;5033005;28;20033;-75
2022/09/27 04:15:08;;;;;;;5.22;3.50;;;;;;;;;;5032959;28;20025;-75
2022/09/27 04:17:36;;;;;;;4.35;2.85;;;;;;;;;;5032705;28;20544;-75
2022/09/27 04:20:03;;;;;;;3.13;2.78;;;;;;;;;;5027651;28;20249;-74
2022/09/27 04:22:29;;;;;;;3.45;3.15;;;;;;;;;;5051248;28;20036;-74
2022/09/27 04:24:55;;;;;;;7.32;3.70;;;;;;;;;;5041642;28;20053;-75
2022/09/27 04:27:21;;;;;;;6.25;3.80;;;;;;;;;;5033367;28;20040;-76
2022/09/27 04:29:47;;;;;;;3.60;3.30;;;;;;;;;;5032993;28;20411;-81
2022/09/27 04:32:14;;;;;;;9.30;6.72;;;;;;;;;;5017158;28;20366;-74
2022/09/27 04:37:25;;;;;;;8.10;4.30;;;;;;;;;;5044144;28;20092;-74
2022/09/27 04:39:51;;;;;;;5.97;4.53;;;;;;;;;;5046186;28;20064;-74
2022/09/27 04:42:17;;;;;;;4.10;3.53;;;;;;;;;;5043372;28;20026;-74
2022/09/27 04:44:43;;;;;;;7.72;4.00;;;;;;;;;;5039965;28;20040;-73
2022/09/27 04:47:09;;;;;;;4.05;3.65;;;;;;;;;;5042393;28;20026;-74
2022/09/27 04:49:35;;;;;;;6.43;3.97;;;;;;;;;;5017364;28;20147;-74
2022/09/27 04:52:01;;;;;;;5.95;4.00;;;;;;;;;;5033463;28;20131;-73
2022/09/27 04:54:28;;;;;;;5.40;4.07;;;;;;;;;;5032835;28;20634;-74
2022/09/27 04:56:54;;;;;;;5.15;4.30;;;;;;;;;;5032397;28;20072;-73
2022/09/27 04:59:20;;;;;;;5.38;3.88;;;;;;;;;;5032849;28;20026;-74
2022/09/27 05:01:46;;;;;;;10.25;7.10;;;;;;;;;;5033167;28;20025;-74
2022/09/27 05:04:12;;;;;;;12.23;8.27;;;;;;;;;;5032870;28;20025;-75
2022/09/27 05:06:38;;;;;;;6.28;4.75;;;;;;;;;;5033291;28;20033;-74
2022/09/27 05:09:04;;;;;;;6.03;5.07;;;;;;;;;;5033903;28;20035;-76
2022/09/27 05:11:30;;;;;;;9.52;5.90;;;;;;;;;;5033191;28;20037;-75
2022/09/27 05:13:56;;;;;;;9.48;6.53;;;;;;;;;;5014882;28;20037;-75
2022/09/27 05:16:23;;;;;;;14.98;7.38;;;;;;;;;;5036416;28;20029;-76
2022/09/27 05:18:49;;;;;;;9.15;7.00;;;;;;;;;;5038121;28;20036;-75
2022/09/27 05:21:15;;;;;;;10.48;8.02;;;;;;;;;;5038303;28;20021;-73
2022/09/27 05:23:41;;;;;;;9.48;6.68;;;;;;;;;;5037180;28;20029;-76
2022/09/27 05:26:07;;;;;;;9.95;7.60;;;;;;;;;;5036893;28;20026;-73
2022/09/27 05:28:37;;;;;;;13.68;8.40;;;;;;;;;;5038786;28;20558;-76
2022/09/27 05:31:02;;;;;;;11.15;8.25;;;;;;;;;;5037797;28;20025;-76
2022/09/27 05:33:29;;;;;;;9.80;7.50;;;;;;;;;;5039203;28;20450;-76
2022/09/27 05:35:55;;;;;;;9.45;7.78;;;;;;;;;;5036727;28;20030;-74
2022/09/27 05:38:22;;;;;;;11.65;7.97;;;;;;;;;;5036322;28;20079;-74
2022/09/27 05:40:49;;;;;;;13.10;8.27;;;;;;;;;;5037067;28;20098;-76
2022/09/27 05:43:16;;;;;;;13.98;8.02;;;;;;;;;;5020078;28;20044;-75
2022/09/27 05:45:42;;;;;;;12.90;8.98;;;;;;;;;;5018938;28;20087;-74
2022/09/27 05:48:09;;;;;;;26.17;17.13;;;;;;;;;;5036761;28;20049;-74
2022/09/27 05:50:35;;;;;;;21.33;14.80;;;;;;;;;;5036256;28;20038;-75
2022/09/27 05:53:01;;;;;;;14.32;10.20;;;;;;;;;;5037181;28;20493;-75
2022/09/27 05:55:28;;;;;;;12.48;9.98;;;;;;;;;;5036754;28;20026;-75
2022/09/27 05:57:55;;;;;;;14.73;9.98;;;;;;;;;;5041516;28;20018;-74
2022/09/27 06:00:21;;;;;;;14.77;10.50;;;;;;;;;;5041365;28;20033;-74
2022/09/27 06:02:52;;;;;;;14.55;11.25;;;;;;;;;;5041286;28;20029;-75
2022/09/27 06:05:18;;;;;;;13.60;11.10;;;;;;;;;;5038950;28;20026;-74
2022/09/27 06:07:45;;;;;;;21.40;12.77;;;;;;;;;;5043420;28;20029;-77
2022/09/27 06:10:11;;;;;;;18.30;12.95;;;;;;;;;;5043733;28;20041;-75
2022/09/27 06:12:37;;;;;;;15.50;12.02;;;;;;;;;;5064031;22;20109;-70
2022/09/27 06:15:03;;;;;;;18.20;12.10;;;;;;;;;;5035167;28;20022;-69
2022/09/27 06:17:29;;;;;;;15.52;11.57;;;;;;;;;;5037103;28;20036;-70
2022/09/27 06:19:55;;;;;;;22.25;12.68;;;;;;;;;;5036280;28;20028;-70
2022/09/27 06:22:23;;;;;;;18.90;13.30;;;;;;;;;;5038253;28;20389;-70
2022/09/27 06:24:49;;;;;;;12.93;9.75;;;;;;;;;;5035592;28;20029;-70
2022/09/27 06:27:17;;;;;;;14.95;8.15;;;;;;;;;;5033194;28;20018;-71
2022/09/27 06:29:43;;;;;;;13.90;8.85;;;;;;;;;;5033719;28;20017;-71
2022/09/27 06:32:10;;;;;;;14.18;8.25;;;;;;;;;;5033787;28;20104;-70
2022/09/27 06:34:36;;;;;;;14.00;7.75;;;;;;;;;;5033029;28;20076;-69
2022/09/27 06:37:01;;;;;;;12.93;8.00;;;;;;;;;;5033264;28;20021;-72
2022/09/27 06:39:34;;;;;;;13.38;8.60;;;;;;;;;;5034079;28;20415;-72
2022/09/27 06:42:01;;;;;;;14.38;7.88;;;;;;;;;;5034244;28;20125;-71
2022/09/27 06:44:27;;;;;;;16.52;9.68;;;;;;;;;;5034085;28;20057;-71
2022/09/27 06:46:54;;;;;;;25.67;11.25;;;;;;;;;;5033948;28;20449;-71
2022/09/27 06:49:21;;;;;;;21.40;10.52;;;;;;;;;;5036068;28;20024;-70
2022/09/27 06:51:47;;;;;;;14.55;8.90;;;;;;;;;;5021671;28;20390;-70
2022/09/27 06:54:13;;;;;;;11.18;7.30;;;;;;;;;;5035022;28;20435;-70
2022/09/27 06:56:39;;;;;;;16.42;7.35;;;;;;;;;;5034742;28;20022;-71
2022/09/27 07:01:51;;;;;;;12.90;5.70;;;;;;;;;;5036146;28;20099;-70
2022/09/27 07:04:17;;;;;;;10.00;4.07;;;;;;;;;;5034344;28;20474;-68
2022/09/27 07:06:44;;;;;;;13.57;4.32;;;;;;;;;;5033700;28;20116;-69
2022/09/27 07:09:10;;;;;;;14.73;6.18;;;;;;;;;;5034834;28;20030;-70
2022/09/27 07:11:36;;;;;;;9.80;3.28;;;;;;;;;;5042518;28;20030;-70
2022/09/27 07:14:03;;;;;;;9.00;2.80;;;;;;;;;;5035427;28;20025;-70
2022/09/27 07:16:30;;;;;;;11.07;3.15;;;;;;;;;;5034161;28;20025;-70
2022/09/27 07:18:59;;;;;;;7.07;2.50;;;;;;;;;;5033879;28;20049;-68
2022/09/27 07:21:25;;;;;;;11.38;3.25;;;;;;;;;;5033895;28;20126;-69
2022/09/27 07:23:52;;;;;;;11.93;2.40;;;;;;;;;;5033535;28;20033;-68
2022/09/27 07:26:18;;;;;;;7.72;2.67;;;;;;;;;;5033873;28;20060;-69
2022/09/27 07:28:44;;;;;;;7.65;2.10;;;;;;;;;;5033608;28;20068;-70
2022/09/27 07:31:14;;;;;;;10.25;2.10;;;;;;;;;;5034513;28;20352;-70
2022/09/27 07:33:40;;;;;;;8.43;2.20;;;;;;;;;;5034186;28;20025;-69
2022/09/27 07:36:07;;;;;;;6.32;2.05;;;;;;;;;;5034398;28;20112;-68
2022/09/27 07:38:33;;;;;;;8.20;2.05;;;;;;;;;;5034316;28;20022;-70
2022/09/27 07:41:04;;;;;;;7.32;2.00;;;;;;;;;;5033624;28;20152;-70
2022/09/27 07:43:31;;;;;;;12.23;2.33;;;;;;;;;;5033462;28;20462;-70
2022/09/27 07:45:57;;;;;;;6.15;1.33;;;;;;;;;;5033267;28;20026;-70
2022/09/27 07:48:23;;;;;;;5.68;1.80;;;;;;;;;;5030853;28;20552;-69
2022/09/27 07:50:49;;;;;;;7.30;1.58;;;;;;;;;;5032722;28;20025;-68
2022/09/27 07:53:15;;;;;;;8.25;1.92;;;;;;;;;;5033172;28;20022;-68
2022/09/27 07:55:41;;;;;;;5.45;1.60;;;;;;;;;;5032590;28;20029;-69
2022/09/27 07:58:09;;;;;;;5.35;1.60;;;;;;;;;;5035487;28;20017;-70
2022/09/27 08:00:36;;;;;;;4.45;2.10;;;;;;;;;;5033457;28;20029;-69
2022/09/27 08:03:05;;;;;;;15.73;4.78;;;;;;;;;;5036438;28;20029;-70
2022/09/27 08:05:33;;;;;;;9.70;2.33;;;;;;;;;;5038710;28;20362;-71
2022/09/27 08:07:59;;;;;;;7.95;1.95;;;;;;;;;;5044176;28;20101;-69
2022/09/27 08:10:30;;;;;;;8.05;2.60;;;;;;;;;;5043035;28;20060;-70
2022/09/27 08:12:58;;;;;;;9.38;2.47;;;;;;;;;;5040404;28;20025;-71
2022/09/27 08:15:24;;;;;;;8.98;2.88;;;;;;;;;;5031570;28;20025;-69
2022/09/27 08:17:50;;;;;;;7.95;1.55;;;;;;;;;;5032817;28;20028;-71
2022/09/27 08:20:16;;;;;;;11.15;3.38;;;;;;;;;;5032927;28;20103;-70
2022/09/27 08:22:42;;;;;;;10.48;3.25;;;;;;;;;;5031093;28;20042;-70
2022/09/27 08:25:09;;;;;;;4.78;1.45;;;;;;;;;;5031349;28;20037;-70
2022/09/27 08:27:35;;;;;;;7.05;1.48;;;;;;;;;;5031476;28;20022;-69
2022/09/27 08:30:02;;;;;;;6.65;1.83;;;;;;;;;;5014512;28;20052;-69
2022/09/27 08:32:29;;;;;;;6.13;1.13;;;;;;;;;;5034683;28;20049;-70
2022/09/27 08:34:55;;;;;;;8.30;2.47;;;;;;;;;;5039781;28;20017;-70
2022/09/27 08:37:21;;;;;;;8.70;2.03;;;;;;;;;;5040622;28;20036;-69
2022/09/27 08:39:47;;;;;;;27.00;13.80;;;;;;;;;;5040428;28;20056;-70
2022/09/27 08:42:13;;;;;;;11.10;4.47;;;;;;;;;;5042759;28;20029;-70
2022/09/27 08:44:58;;;;;;;5.60;1.65;;;;;;;;;;5043525;28;20029;-71
2022/09/27 08:47:26;;;;;;;10.02;3.78;;;;;;;;;;5042047;28;20109;-72
2022/09/27 08:49:52;;;;;;;9.38;2.97;;;;;;;;;;5021749;28;20037;-70
2022/09/27 08:52:40;;;;;;;3.63;1.60;;;;;;;;;;5046135;28;20056;-70
2022/09/27 08:55:16;;;;;;;3.58;1.60;;;;;;;;;;5048809;28;20017;-71
2022/09/27 08:57:43;;;;;;;3.03;1.05;;;;;;;;;;5045770;28;20028;-70
2022/09/27 09:00:12;;;;;;;7.07;1.80;;;;;;;;;;5048791;28;20025;-69
2022/09/27 09:02:38;;;;;;;3.78;1.52;;;;;;;;;;5051440;28;20059;-71
2022/09/27 09:05:12;;;;;;;4.82;1.10;;;;;;;;;;5047762;28;20124;-71
2022/09/27 09:07:38;;;;;;;4.17;1.70;;;;;;;;;;5047246;28;20025;-69
2022/09/27 09:13:27;;;;;;;4.15;1.33;;;;;;;;;;5050779;28;20051;-73
2022/09/27 09:16:00;;;;;;;3.90;1.05;;;;;;;;;;5005945;28;20040;-73
2022/09/27 09:18:42;;;;;;;6.10;2.20;;;;;;;;;;5017824;28;20025;-70
2022/09/27 09:21:13;;;;;;;4.03;1.20;;;;;;;;;;5034676;28;20429;-70
2022/09/27 09:23:57;;;;;;;4.78;1.10;;;;;;;;;;5034782;28;20033;-70
2022/09/27 09:26:22;;;;;;;3.90;1.27;;;;;;;;;;5034150;28;20034;-70
2022/09/27 09:28:51;;;;;;;2.80;1.00;;;;;;;;;;5034434;28;20029;-70
2022/09/27 09:31:24;;;;;;;8.63;1.63;;;;;;;;;;5034229;28;20040;-70
2022/09/27 09:33:54;;;;;;;4.75;1.42;;;;;;;;;;5034388;28;20509;-70
2022/09/27 09:36:23;;;;;;;5.53;1.33;;;;;;;;;;5033968;28;20567;-70
2022/09/27 09:38:56;;;;;;;3.45;1.23;;;;;;;;;;5034219;28;20430;-71
2022/09/27 09:41:28;;;;;;;2.80;1.10;;;;;;;;;;5034010;28;20079;-70
2022/09/27 09:44:01;;;;;;;4.95;1.50;;;;;;;;;;5034004;28;20474;-69
2022/09/27 09:46:35;;;;;;;3.50;1.35;;;;;;;;;;5033772;28;20041;-71
2022/09/27 09:49:06;;;;;;;4.43;2.25;;;;;;;;;;5033889;28;20036;-70
2022/09/27 09:51:34;;;;;;;6.25;3.00;;;;;;;;;;5034864;28;20037;-70
2022/09/27 09:54:06;;;;;;;6.20;3.05;;;;;;;;;;5034716;28;20079;-71
2022/09/27 09:56:35;;;;;;;6.45;2.58;;;;;;;;;;5034198;28;20056;-70
2022/09/27 09:59:15;;;;;;;6.35;2.90;;;;;;;;;;5034359;28;20108;-73
2022/09/27 10:01:45;;;;;;;6.63;2.83;;;;;;;;;;5032750;28;20017;-72
2022/09/27 10:04:15;;;;;;;8.48;3.22;;;;;;;;;;5034306;28;20021;-70
2022/09/27 10:06:41;;;;;;;7.00;2.72;;;;;;;;;;5034272;28;20537;-71
2022/09/27 10:09:09;;;;;;;10.75;3.45;;;;;;;;;;5037636;28;20056;-73
2022/09/27 10:11:45;;;;;;;8.63;2.72;;;;;;;;;;5038976;28;20025;-71
2022/09/27 10:14:12;;;;;;;10.63;2.83;;;;;;;;;;5033656;28;20476;-73
2022/09/27 10:16:41;;;;;;;4.38;1.65;;;;;;;;;;5014272;28;20361;-70
2022/09/27 10:19:08;;;;;;;4.50;1.42;;;;;;;;;;5035280;28;20391;-70
2022/09/27 10:21:38;;;;;;;6.43;1.42;;;;;;;;;;5033995;28;20030;-70
2022/09/27 10:24:09;;;;;;;2.28;1.10;;;;;;;;;;5035862;28;20112;-71
2022/09/27 10:26:36;;;;;;;3.97;2.35;;;;;;;;;;5036048;28;20394;-69
2022/09/27 10:29:15;;;;;;;6.45;2.33;;;;;;;;;;5017467;28;20083;-71
2022/09/27 10:31:44;;;;;;;5.38;1.73;;;;;;;;;;5033070;28;20029;-69
2022/09/27 10:34:17;;;;;;;2.47;0.98;;;;;;;;;;5036395;28;20470;-69
2022/09/27 10:36:43;;;;;;;1.55;0.95;;;;;;;;;;5036014;28;20029;-69
2022/09/27 10:39:19;;;;;;;3.40;1.25;;;;;;;;;;5035985;28;20029;-70
2022/09/27 10:41:45;;;;;;;1.52;1.08;;;;;;;;;;5034867;28;20029;-71
2022/09/27 10:44:17;;;;;;;7.47;3.80;;;;;;;;;;5016241;28;20109;-70
2022/09/27 10:46:44;;;;;;;4.25;1.58;;;;;;;;;;5036009;28;20036;-69
2022/09/27 10:49:16;;;;;;;2.42;1.23;;;;;;;;;;5034762;28;20029;-69
2022/09/27 10:51:43;;;;;;;2.75;1.20;;;;;;;;;;5035120;28;20113;-70
2022/09/27 10:54:19;;;;;;;4.22;1.13;;;;;;;;;;5036342;28;20026;-69
2022/09/27 10:56:54;;;;;;;3.25;1.08;;;;;;;;;;5034838;28;20018;-70
2022/09/27 10:59:20;;;;;;;3.50;1.30;;;;;;;;;;5035521;28;20052;-71
2022/09/27 11:01:50;;;;;;;7.53;2.90;;;;;;;;;;5034083;28;20029;-70
2022/09/27 11:04:22;;;;;;;4.25;1.10;;;;;;;;;;5033367;28;20097;-69
2022/09/27 11:06:48;;;;;;;2.90;1.10;;;;;;;;;;5033049;28;20467;-70
2022/09/27 11:09:22;;;;;;;2.25;1.23;;;;;;;;;;5032991;28;20382;-69
2022/09/27 11:11:48;;;;;;;1.73;0.98;;;;;;;;;;5033193;28;20086;-69
2022/09/27 11:14:24;;;;;;;5.10;1.45;;;;;;;;;;5033663;28;20394;-68
2022/09/27 11:17:08;;;;;;;2.28;0.95;;;;;;;;;;5033498;28;20074;-69
2022/09/27 11:19:40;;;;;;;3.47;1.70;;;;;;;;;;5015805;28;20029;-68
2022/09/27 11:22:25;;;;;;;2.42;1.00;;;;;;;;;;5034337;28;20021;-68
2022/09/27 11:24:56;;;;;;;6.95;3.05;;;;;;;;;;5033898;28;20076;-71
2022/09/27 11:27:22;;;;;;;3.58;1.30;;;;;;;;;;5034128;28;20036;-72
2022/09/27 11:30:09;;;;;;;3.17;0.90;;;;;;;;;;5034560;28;20100;-70
2022/09/27 11:32:51;;;;;;;2.42;1.00;;;;;;;;;;5033406;28;20515;-68
2022/09/27 11:35:26;;;;;;;3.50;1.52;;;;;;;;;;5033545;28;20101;-69
2022/09/27 11:38:11;;;;;;;4.28;1.48;;;;;;;;;;5015570;28;20047;-71
2022/09/27 11:40:37;;;;;;;2.85;0.98;;;;;;;;;;5014798;28;20474;-69
2022/09/27 11:43:20;;;;;;;3.22;1.10;;;;;;;;;;5032679;28;20030;-72
2022/09/27 11:45:46;;;;;;;4.18;1.13;;;;;;;;;;5032432;28;20072;-70
2022/09/27 11:48:19;;;;;;;1.92;0.70;;;;;;;;;;5034618;28;20025;-72
2022/09/27 11:50:52;;;;;;;2.40;0.98;;;;;;;;;;5037084;28;20102;-70
2022/09/27 11:53:37;;;;;;;2.17;0.70;;;;;;;;;;5033205;28;20030;-70
2022/09/27 11:56:16;;;;;;;4.13;1.23;;;;;;;;;;5032355;28;20053;-70
2022/09/27 11:58:51;;;;;;;4.07;1.20;;;;;;;;;;5031967;28;20021;-69
2022/09/27 12:01:46;;;;;;;3.58;0.95;;;;;;;;;;5032466;28;20100;-68
2022/09/27 12:04:27;;;;;;;5.78;3.60;;;;;;;;;;5019478;28;20395;-71
2022/09/27 12:07:12;;;;;;;1.92;0.70;;;;;;;;;;5032568;28;20060;-67
2022/09/27 12:09:44;;;;;;;3.97;1.00;;;;;;;;;;5032972;28;20025;-71
2022/09/27 12:12:14;;;;;;;3.78;1.27;;;;;;;;;;5033092;28;20025;-69
2022/09/27 12:14:45;;;;;;;4.03;0.70;;;;;;;;;;5032751;28;20030;-70
2022/09/27 12:17:14;;;;;;;3.67;1.02;;;;;;;;;;5032852;28;20028;-71
2022/09/27 12:19:42;;;;;;;4.53;1.10;;;;;;;;;;5033264;28;20060;-70
2022/09/27 12:22:12;;;;;;;2.15;1.00;;;;;;;;;;5033038;28;20428;-71
2022/09/27 12:24:39;;;;;;;3.38;1.15;;;;;;;;;;5032341;28;20113;-71
2022/09/27 12:27:13;;;;;;;2.65;0.85;;;;;;;;;;5032465;28;20084;-69
2022/09/27 12:29:40;;;;;;;3.58;1.20;;;;;;;;;;5032402;28;20446;-71
2022/09/27 12:32:16;;;;;;;4.15;1.00;;;;;;;;;;5032817;28;20105;-70
2022/09/27 12:34:49;;;;;;;5.53;2.88;;;;;;;;;;5033754;28;20018;-69
2022/09/27 12:37:15;;;;;;;5.78;2.78;;;;;;;;;;5033017;28;20087;-71
2022/09/27 12:39:49;;;;;;;3.63;0.90;;;;;;;;;;5033032;28;20390;-70
2022/09/27 12:42:21;;;;;;;3.30;0.80;;;;;;;;;;5033756;28;20049;-68
2022/09/27 12:44:47;;;;;;;6.88;0.93;;;;;;;;;;5032235;28;20033;-68
2022/09/27 12:47:20;;;;;;;4.10;0.80;;;;;;;;;;5032095;28;20051;-70
2022/09/27 12:50:03;;;;;;;3.92;1.20;;;;;;;;;;5032352;28;20030;-69
2022/09/27 12:52:31;;;;;;;3.58;1.00;;;;;;;;;;5033179;28;20132;-72
2022/09/27 12:55:16;;;;;;;4.80;2.03;;;;;;;;;;5015002;28;20059;-72
2022/09/27 12:57:51;;;;;;;2.78;0.80;;;;;;;;;;5014098;28;20030;-69
2022/09/27 13:00:25;;;;;;;2.40;0.70;;;;;;;;;;5031879;28;20099;-69
2022/09/27 13:03:02;;;;;;;2.10;0.80;;;;;;;;;;5031847;28;20037;-70
2022/09/27 13:05:44;;;;;;;3.40;0.80;;;;;;;;;;5031256;28;20080;-71
2022/09/27 13:08:10;;;;;;;1.98;0.70;;;;;;;;;;5032698;28;20036;-71
2022/09/27 13:10:44;;;;;;;3.53;0.80;;;;;;;;;;5039150;28;20045;-70
2022/09/27 13:13:15;;;;;;;3.33;0.80;;;;;;;;;;5025223;28;20390;-71
2022/09/27 13:15:43;;;;;;;4.57;1.00;;;;;;;;;;5038914;28;20451;-72
2022/09/27 13:18:29;;;;;;;2.53;0.65;;;;;;;;;;5018887;28;20026;-71
2022/09/27 13:20:55;;;;;;;2.75;0.60;;;;;;;;;;5035475;28;20040;-70
2022/09/27 13:23:22;;;;;;;2.53;0.75;;;;;;;;;;5033400;28;20548;-71
2022/09/27 13:25:51;;;;;;;3.55;0.93;;;;;;;;;;5014556;28;20033;-69
2022/09/27 13:28:30;;;;;;;6.30;1.63;;;;;;;;;;5032183;28;20372;-72
2022/09/27 13:31:03;;;;;;;6.28;1.98;;;;;;;;;;5031628;28;20017;-70
2022/09/27 13:33:48;;;;;;;5.05;0.88;;;;;;;;;;5031628;28;20067;-71
2022/09/27 13:36:29;;;;;;;1.30;0.85;;;;;;;;;;5033085;28;20026;-68
2022/09/27 13:39:24;;;;;;;2.22;0.60;;;;;;;;;;5036545;28;20507;-70
2022/09/27 13:41:52;;;;;;;3.10;0.70;;;;;;;;;;5024440;28;20046;-70
2022/09/27 13:44:37;;;;;;;3.50;0.70;;;;;;;;;;5035260;28;20032;-69
2022/09/27 13:47:25;;;;;;;11.40;6.57;;;;;;;;;;5036031;28;20022;-70
2022/09/27 13:49:52;;;;;;;6.35;2.10;;;;;;;;;;5034852;28;20028;-70
2022/09/27 13:52:35;;;;;;;7.90;2.42;;;;;;;;;;5034558;28;20057;-70
2022/09/27 13:55:03;;;;;;;2.20;1.00;;;;;;;;;;5034261;28;20021;-70
2022/09/27 13:57:41;;;;;;;2.10;0.82;;;;;;;;;;5034336;28;20022;-68
2022/09/27 14:00:16;;;;;;;7.55;1.30;;;;;;;;;;5035289;28;20032;-71
2022/09/27 14:02:50;;;;;;;4.88;1.00;;;;;;;;;;5039742;28;20097;-70
2022/09/27 14:05:19;;;;;;;6.90;1.02;;;;;;;;;;5035936;28;20025;-72
2022/09/27 14:07:46;;;;;;;7.03;1.30;;;;;;;;;;5016541;28;20038;-69
2022/09/27 14:10:13;;;;;;;8.35;2.65;;;;;;;;;;5034501;28;20040;-70
2022/09/27 14:12:40;;;;;;;4.85;0.85;;;;;;;;;;5034218;28;20042;-69
2022/09/27 14:15:16;;;;;;;4.95;1.23;;;;;;;;;;5036331;28;20025;-69
2022/09/27 14:17:45;;;;;;;4.35;1.23;;;;;;;;;;5043580;28;20163;-71
2022/09/27 14:20:31;;;;;;;3.75;0.98;;;;;;;;;;5020705;28;20030;-72
2022/09/27 14:22:57;;;;;;;3.53;1.05;;;;;;;;;;5034496;28;20073;-68
2022/09/27 14:25:24;;;;;;;20.05;11.23;;;;;;;;;;5016092;28;20033;-69
2022/09/27 14:27:50;;;;;;;3.70;1.05;;;;;;;;;;5034133;28;20098;-68
2022/09/27 14:30:16;;;;;;;4.72;1.30;;;;;;;;;;5035411;28;20037;-69
2022/09/27 14:32:47;;;;;;;6.60;1.13;;;;;;;;;;5038895;28;20390;-71
2022/09/27 14:38:00;;;;;;;5.63;1.48;;;;;;;;;;5044206;28;20041;-70
2022/09/27 14:40:27;;;;;;;3.83;1.23;;;;;;;;;;5041898;28;20057;-69
2022/09/27 14:42:54;;;;;;;3.85;0.90;;;;;;;;;;5043390;28;20459;-69
2022/09/27 14:45:29;;;;;;;6.00;1.58;;;;;;;;;;5044829;28;20035;-69
2022/09/27 14:47:55;;;;;;;6.50;1.88;;;;;;;;;;5041760;28;20025;-70
2022/09/27 14:50:23;;;;;;;5.63;1.20;;;;;;;;;;5040844;28;20026;-68
2022/09/27 14:52:54;;;;;;;4.68;1.30;;;;;;;;;;5040837;28;20021;-70
2022/09/27 14:55:21;;;;;;;4.10;0.93;;;;;;;;;;5041467;28;20053;-69
2022/09/27 14:57:50;;;;;;;7.00;1.30;;;;;;;;;;5042200;28;20021;-71
2022/09/27 15:00:21;;;;;;;5.53;2.00;;;;;;;;;;5037069;28;20021;-73
2022/09/27 15:02:48;;;;;;;9.13;1.88;;;;;;;;;;5035064;28;20025;-72
2022/09/27 15:05:15;;;;;;;3.97;1.30;;;;;;;;;;5018777;28;20402;-71
2022/09/27 15:07:42;;;;;;;5.13;2.28;;;;;;;;;;5037300;28;20029;-72
2022/09/27 15:10:13;;;;;;;9.65;3.90;;;;;;;;;;5036375;28;20555;-72